sensor_id;sensor_type;location;lat;lon;timestamp;pressure;altitude;pressure_sealevel;temperature;humidity
39265;BME280;42646;51.910;7.724;2023-05-09T00:01:24;101215.94;;;14.78;100.00
39265;BME280;42646;51.910;7.724;2023-05-09T00:03:52;101214.94;;;14.79;100.00
39265;BME280;42646;51.910;7.724;2023-05-09T00:06:22;101209.75;;;14.77;100.00
39265;BME280;42646;51.910;7.724;2023-05-09T00:08:49;101208.03;;;14.76;100.00
39265;BME280;42646;51.910;7.724;2023-05-09T00:11:17;101200.16;;;14.75;100.00
39265;BME280;42646;51.910;7.724;2023-05-09T00:13:45;101196.97;;;14.71;100.00
39265;BME280;42646;51.910;7.724;2023-05-09T00:16:14;101203.28;;;14.70;100.00
39265;BME280;42646;51.910;7.724;2023-05-09T00:18:43;101200.78;;;14.68;100.00
39265;BME280;42646;51.910;7.724;2023-05-09T00:21:10;101202.78;;;14.66;100.00
39265;BME280;42646;51.910;7.724;2023-05-09T00:23:39;101195.03;;;14.63;100.00
39265;BME280;42646;51.910;7.724;2023-05-09T00:26:08;101187.31;;;14.60;100.00
39265;BME280;42646;51.910;7.724;2023-05-09T00:28:37;101187.59;;;14.57;100.00
39265;BME280;42646;51.910;7.724;2023-05-09T00:31:05;101186.91;;;14.55;100.00
39265;BME280;42646;51.910;7.724;2023-05-09T00:33:33;101178.31;;;14.52;100.00
39265;BME280;42646;51.910;7.724;2023-05-09T00:36:01;101173.44;;;14.47;100.00
39265;BME280;42646;51.910;7.724;2023-05-09T00:38:29;101172.72;;;14.45;100.00
39265;BME280;42646;51.910;7.724;2023-05-09T00:41:00;101168.66;;;14.41;100.00
39265;BME280;42646;51.910;7.724;2023-05-09T00:43:28;101163.59;;;14.38;100.00
39265;BME280;42646;51.910;7.724;2023-05-09T00:45:57;101162.09;;;14.35;100.00
39265;BME280;42646;51.910;7.724;2023-05-09T00:48:24;101155.19;;;14.33;100.00
39265;BME280;42646;51.910;7.724;2023-05-09T00:50:52;101151.09;;;14.29;100.00
39265;BME280;42646;51.910;7.724;2023-05-09T00:53:23;101153.94;;;14.27;100.00
39265;BME280;42646;51.910;7.724;2023-05-09T00:55:51;101150.44;;;14.27;100.00
39265;BME280;42646;51.910;7.724;2023-05-09T00:58:22;101139.72;;;14.27;100.00
39265;BME280;42646;51.910;7.724;2023-05-09T01:00:50;101144.38;;;14.25;100.00
39265;BME280;42646;51.910;7.724;2023-05-09T01:03:18;101140.88;;;14.24;100.00
39265;BME280;42646;51.910;7.724;2023-05-09T01:05:52;101138.63;;;14.20;100.00
39265;BME280;42646;51.910;7.724;2023-05-09T01:08:33;101130.91;;;14.16;100.00
39265;BME280;42646;51.910;7.724;2023-05-09T01:11:31;101133.22;;;14.11;100.00
39265;BME280;42646;51.910;7.724;2023-05-09T01:14:07;101127.31;;;14.08;100.00
39265;BME280;42646;51.910;7.724;2023-05-09T01:16:44;101119.56;;;14.05;100.00
39265;BME280;42646;51.910;7.724;2023-05-09T01:19:39;101118.03;;;14.02;100.00
39265;BME280;42646;51.910;7.724;2023-05-09T01:22:17;101119.19;;;14.00;100.00
39265;BME280;42646;51.910;7.724;2023-05-09T01:25:05;101118.63;;;13.96;100.00
39265;BME280;42646;51.910;7.724;2023-05-09T01:27:41;101111.88;;;13.92;100.00
39265;BME280;42646;51.910;7.724;2023-05-09T01:30:17;101109.38;;;13.90;100.00
39265;BME280;42646;51.910;7.724;2023-05-09T01:32:48;101107.00;;;13.87;100.00
39265;BME280;42646;51.910;7.724;2023-05-09T01:35:19;101108.97;;;13.85;100.00
39265;BME280;42646;51.910;7.724;2023-05-09T01:37:49;101097.88;;;13.80;100.00
39265;BME280;42646;51.910;7.724;2023-05-09T01:40:19;101101.53;;;13.79;100.00
39265;BME280;42646;51.910;7.724;2023-05-09T01:42:51;101095.50;;;13.77;100.00
39265;BME280;42646;51.910;7.724;2023-05-09T01:45:21;101092.84;;;13.77;100.00
39265;BME280;42646;51.910;7.724;2023-05-09T01:47:50;101093.97;;;13.75;100.00
39265;BME280;42646;51.910;7.724;2023-05-09T01:50:18;101099.78;;;13.70;100.00
39265;BME280;42646;51.910;7.724;2023-05-09T01:52:51;101094.72;;;13.67;100.00
39265;BME280;42646;51.910;7.724;2023-05-09T01:55:20;101095.84;;;13.65;100.00
39265;BME280;42646;51.910;7.724;2023-05-09T01:57:52;101085.16;;;13.65;100.00
39265;BME280;42646;51.910;7.724;2023-05-09T02:00:24;101087.13;;;13.62;100.00
39265;BME280;42646;51.910;7.724;2023-05-09T02:02:54;101082.78;;;13.61;100.00
39265;BME280;42646;51.910;7.724;2023-05-09T02:05:26;101079.41;;;13.59;100.00
39265;BME280;42646;51.910;7.724;2023-05-09T02:07:56;101080.25;;;13.60;100.00
39265;BME280;42646;51.910;7.724;2023-05-09T02:10:25;101077.84;;;13.57;100.00
39265;BME280;42646;51.910;7.724;2023-05-09T02:12:54;101076.19;;;13.56;100.00
39265;BME280;42646;51.910;7.724;2023-05-09T02:15:24;101071.81;;;13.55;100.00
39265;BME280;42646;51.910;7.724;2023-05-09T02:17:52;101077.31;;;13.53;100.00
39265;BME280;42646;51.910;7.724;2023-05-09T02:20:20;101081.84;;;13.53;100.00
39265;BME280;42646;51.910;7.724;2023-05-09T02:22:48;101078.31;;;13.52;100.00
39265;BME280;42646;51.910;7.724;2023-05-09T02:25:18;101075.78;;;13.51;100.00
39265;BME280;42646;51.910;7.724;2023-05-09T02:27:46;101068.59;;;13.51;100.00
39265;BME280;42646;51.910;7.724;2023-05-09T02:30:20;101067.91;;;13.49;100.00
39265;BME280;42646;51.910;7.724;2023-05-09T02:32:55;101069.06;;;13.47;100.00
39265;BME280;42646;51.910;7.724;2023-05-09T02:35:25;101078.03;;;13.46;100.00
39265;BME280;42646;51.910;7.724;2023-05-09T02:37:53;101069.34;;;13.44;100.00
39265;BME280;42646;51.910;7.724;2023-05-09T02:40:21;101069.50;;;13.42;100.00
39265;BME280;42646;51.910;7.724;2023-05-09T02:42:50;101071.59;;;13.39;100.00
39265;BME280;42646;51.910;7.724;2023-05-09T02:45:20;101065.41;;;13.38;100.00
39265;BME280;42646;51.910;7.724;2023-05-09T02:47:48;101064.72;;;13.36;100.00
39265;BME280;42646;51.910;7.724;2023-05-09T02:50:17;101068.09;;;13.38;100.00
39265;BME280;42646;51.910;7.724;2023-05-09T02:52:45;101062.06;;;13.36;100.00
39265;BME280;42646;51.910;7.724;2023-05-09T02:55:13;101063.91;;;13.35;100.00
39265;BME280;42646;51.910;7.724;2023-05-09T02:57:43;101065.72;;;13.35;100.00
39265;BME280;42646;51.910;7.724;2023-05-09T03:00:11;101061.50;;;13.32;100.00
39265;BME280;42646;51.910;7.724;2023-05-09T03:02:39;101060.13;;;13.28;100.00
39265;BME280;42646;51.910;7.724;2023-05-09T03:05:13;101051.56;;;13.25;100.00
39265;BME280;42646;51.910;7.724;2023-05-09T03:07:44;101050.88;;;13.23;100.00
39265;BME280;42646;51.910;7.724;2023-05-09T03:10:12;101052.69;;;13.22;100.00
39265;BME280;42646;51.910;7.724;2023-05-09T03:12:41;101050.16;;;13.21;100.00
39265;BME280;42646;51.910;7.724;2023-05-09T03:15:09;101046.75;;;13.19;100.00
39265;BME280;42646;51.910;7.724;2023-05-09T03:17:40;101043.41;;;13.17;100.00
39265;BME280;42646;51.910;7.724;2023-05-09T03:20:11;101043.69;;;13.14;100.00
39265;BME280;42646;51.910;7.724;2023-05-09T03:22:40;101044.66;;;13.13;100.00
39265;BME280;42646;51.910;7.724;2023-05-09T03:25:11;101034.97;;;13.12;100.00
39265;BME280;42646;51.910;7.724;2023-05-09T03:27:39;101036.81;;;13.11;100.00
39265;BME280;42646;51.910;7.724;2023-05-09T03:30:13;101036.94;;;13.09;100.00
39265;BME280;42646;51.910;7.724;2023-05-09T03:32:48;101041.59;;;13.07;100.00
39265;BME280;42646;51.910;7.724;2023-05-09T03:35:17;101032.88;;;13.05;100.00
39265;BME280;42646;51.910;7.724;2023-05-09T03:37:44;101035.69;;;13.04;100.00
39265;BME280;42646;51.910;7.724;2023-05-09T03:40:43;101041.03;;;13.04;100.00
39265;BME280;42646;51.910;7.724;2023-05-09T03:43:11;101039.66;;;13.00;100.00
39265;BME280;42646;51.910;7.724;2023-05-09T03:46:04;101036.13;;;12.99;100.00
39265;BME280;42646;51.910;7.724;2023-05-09T03:48:33;101031.75;;;12.98;100.00
39265;BME280;42646;51.910;7.724;2023-05-09T03:51:03;101035.28;;;12.99;100.00
39265;BME280;42646;51.910;7.724;2023-05-09T03:53:35;101030.66;;;13.01;100.00
39265;BME280;42646;51.910;7.724;2023-05-09T03:56:06;101026.41;;;12.98;100.00
39265;BME280;42646;51.910;7.724;2023-05-09T03:58:42;101020.94;;;13.00;100.00
39265;BME280;42646;51.910;7.724;2023-05-09T04:01:10;101019.81;;;13.02;100.00
39265;BME280;42646;51.910;7.724;2023-05-09T04:03:38;101019.66;;;13.04;100.00
39265;BME280;42646;51.910;7.724;2023-05-09T04:06:07;101025.72;;;13.06;100.00
39265;BME280;42646;51.910;7.724;2023-05-09T04:08:41;101024.56;;;13.08;100.00
39265;BME280;42646;51.910;7.724;2023-05-09T04:11:10;101027.97;;;13.10;100.00
39265;BME280;42646;51.910;7.724;2023-05-09T04:13:41;101021.63;;;13.12;100.00
39265;BME280;42646;51.910;7.724;2023-05-09T04:16:20;101015.97;;;13.15;100.00
39265;BME280;42646;51.910;7.724;2023-05-09T04:18:49;101019.88;;;13.20;100.00
39265;BME280;42646;51.910;7.724;2023-05-09T04:21:18;101016.13;;;13.23;100.00
39265;BME280;42646;51.910;7.724;2023-05-09T04:23:48;101006.13;;;13.25;100.00
39265;BME280;42646;51.910;7.724;2023-05-09T04:26:23;101019.91;;;13.30;100.00
39265;BME280;42646;51.910;7.724;2023-05-09T04:28:54;101014.25;;;13.33;100.00
39265;BME280;42646;51.910;7.724;2023-05-09T04:31:24;101015.63;;;13.37;100.00
39265;BME280;42646;51.910;7.724;2023-05-09T04:33:52;101026.03;;;13.40;100.00
39265;BME280;42646;51.910;7.724;2023-05-09T04:36:24;101023.75;;;13.45;100.00
39265;BME280;42646;51.910;7.724;2023-05-09T04:38:56;101022.31;;;13.51;100.00
39265;BME280;42646;51.910;7.724;2023-05-09T04:41:30;101020.03;;;13.56;100.00
39265;BME280;42646;51.910;7.724;2023-05-09T04:44:00;101009.06;;;13.59;100.00
39265;BME280;42646;51.910;7.724;2023-05-09T04:46:28;101008.06;;;13.60;100.00
39265;BME280;42646;51.910;7.724;2023-05-09T04:48:56;101021.00;;;13.65;100.00
39265;BME280;42646;51.910;7.724;2023-05-09T04:51:25;101014.66;;;13.66;100.00
39265;BME280;42646;51.910;7.724;2023-05-09T04:53:52;101007.31;;;13.68;100.00
39265;BME280;42646;51.910;7.724;2023-05-09T04:56:27;101001.69;;;13.71;100.00
39265;BME280;42646;51.910;7.724;2023-05-09T04:58:57;101001.38;;;13.74;100.00
39265;BME280;42646;51.910;7.724;2023-05-09T05:01:26;100998.41;;;13.77;100.00
39265;BME280;42646;51.910;7.724;2023-05-09T05:04:19;100990.22;;;13.78;100.00
39265;BME280;42646;51.910;7.724;2023-05-09T05:06:47;100991.75;;;13.81;100.00
39265;BME280;42646;51.910;7.724;2023-05-09T05:09:15;100986.09;;;13.84;100.00
39265;BME280;42646;51.910;7.724;2023-05-09T05:11:46;100981.31;;;13.87;100.00
39265;BME280;42646;51.910;7.724;2023-05-09T05:14:29;100978.31;;;13.90;100.00
39265;BME280;42646;51.910;7.724;2023-05-09T05:16:58;100977.88;;;13.95;100.00
39265;BME280;42646;51.910;7.724;2023-05-09T05:19:25;100978.09;;;14.02;100.00
39265;BME280;42646;51.910;7.724;2023-05-09T05:21:54;100977.78;;;14.05;100.00
39265;BME280;42646;51.910;7.724;2023-05-09T05:24:23;100974.66;;;14.09;100.00
39265;BME280;42646;51.910;7.724;2023-05-09T05:26:52;100970.69;;;14.13;100.00
39265;BME280;42646;51.910;7.724;2023-05-09T05:29:20;100977.41;;;14.18;100.00
39265;BME280;42646;51.910;7.724;2023-05-09T05:31:49;100972.41;;;14.23;100.00
39265;BME280;42646;51.910;7.724;2023-05-09T05:34:19;100971.78;;;14.29;100.00
39265;BME280;42646;51.910;7.724;2023-05-09T05:36:48;100968.81;;;14.32;100.00
39265;BME280;42646;51.910;7.724;2023-05-09T05:39:20;100964.84;;;14.36;100.00
39265;BME280;42646;51.910;7.724;2023-05-09T05:41:48;100960.56;;;14.43;100.00
39265;BME280;42646;51.910;7.724;2023-05-09T05:44:17;100960.97;;;14.48;100.00
39265;BME280;42646;51.910;7.724;2023-05-09T05:46:46;100959.50;;;14.54;100.00
39265;BME280;42646;51.910;7.724;2023-05-09T05:49:17;100961.69;;;14.58;100.00
39265;BME280;42646;51.910;7.724;2023-05-09T05:51:44;100964.09;;;14.69;100.00
39265;BME280;42646;51.910;7.724;2023-05-09T05:54:14;100956.78;;;14.72;100.00
39265;BME280;42646;51.910;7.724;2023-05-09T05:56:42;100953.47;;;14.78;100.00
39265;BME280;42646;51.910;7.724;2023-05-09T05:59:10;100952.81;;;14.84;100.00
39265;BME280;42646;51.910;7.724;2023-05-09T06:02:02;100955.69;;;14.90;100.00
39265;BME280;42646;51.910;7.724;2023-05-09T06:04:34;100946.19;;;14.96;100.00
39265;BME280;42646;51.910;7.724;2023-05-09T06:07:04;100948.41;;;15.01;100.00
39265;BME280;42646;51.910;7.724;2023-05-09T06:09:32;100947.75;;;15.07;100.00
39265;BME280;42646;51.910;7.724;2023-05-09T06:11:59;100942.59;;;15.13;100.00
39265;BME280;42646;51.910;7.724;2023-05-09T06:14:28;100943.78;;;15.19;100.00
39265;BME280;42646;51.910;7.724;2023-05-09T06:16:57;100941.31;;;15.26;100.00
39265;BME280;42646;51.910;7.724;2023-05-09T06:19:24;100935.97;;;15.34;100.00
39265;BME280;42646;51.910;7.724;2023-05-09T06:21:53;100937.81;;;15.41;100.00
39265;BME280;42646;51.910;7.724;2023-05-09T06:24:21;100923.63;;;15.49;100.00
39265;BME280;42646;51.910;7.724;2023-05-09T06:27:02;100931.66;;;15.57;100.00
39265;BME280;42646;51.910;7.724;2023-05-09T06:29:30;100926.38;;;15.65;100.00
39265;BME280;42646;51.910;7.724;2023-05-09T06:31:58;100921.84;;;15.74;100.00
39265;BME280;42646;51.910;7.724;2023-05-09T06:34:26;100922.19;;;15.79;100.00
39265;BME280;42646;51.910;7.724;2023-05-09T06:36:56;100918.84;;;15.85;100.00
39265;BME280;42646;51.910;7.724;2023-05-09T06:39:23;100915.69;;;15.90;100.00
39265;BME280;42646;51.910;7.724;2023-05-09T06:41:51;100915.31;;;15.93;100.00
39265;BME280;42646;51.910;7.724;2023-05-09T06:44:28;100907.09;;;15.94;100.00
39265;BME280;42646;51.910;7.724;2023-05-09T06:46:56;100905.59;;;16.00;100.00
39265;BME280;42646;51.910;7.724;2023-05-09T06:49:24;100906.13;;;16.03;100.00
39265;BME280;42646;51.910;7.724;2023-05-09T06:51:53;100907.13;;;16.11;100.00
39265;BME280;42646;51.910;7.724;2023-05-09T06:54:22;100901.41;;;16.14;100.00
39265;BME280;42646;51.910;7.724;2023-05-09T06:56:50;100895.69;;;16.17;100.00
39265;BME280;42646;51.910;7.724;2023-05-09T06:59:17;100896.03;;;16.22;100.00
39265;BME280;42646;51.910;7.724;2023-05-09T07:01:45;100890.00;;;16.28;100.00
39265;BME280;42646;51.910;7.724;2023-05-09T07:04:14;100879.75;;;16.32;100.00
39265;BME280;42646;51.910;7.724;2023-05-09T07:06:42;100875.38;;;16.39;100.00
39265;BME280;42646;51.910;7.724;2023-05-09T07:09:13;100878.03;;;16.47;100.00
39265;BME280;42646;51.910;7.724;2023-05-09T07:11:44;100872.81;;;16.53;100.00
39265;BME280;42646;51.910;7.724;2023-05-09T07:14:12;100865.59;;;16.62;100.00
39265;BME280;42646;51.910;7.724;2023-05-09T07:16:40;100863.56;;;16.64;100.00
39265;BME280;42646;51.910;7.724;2023-05-09T07:19:08;100865.72;;;16.69;100.00
39265;BME280;42646;51.910;7.724;2023-05-09T07:21:36;100865.91;;;16.75;100.00
39265;BME280;42646;51.910;7.724;2023-05-09T07:24:04;100861.03;;;16.79;100.00
39265;BME280;42646;51.910;7.724;2023-05-09T07:27:02;100864.03;;;16.84;100.00
39265;BME280;42646;51.910;7.724;2023-05-09T07:29:30;100856.63;;;16.86;100.00
39265;BME280;42646;51.910;7.724;2023-05-09T07:31:58;100859.13;;;16.88;100.00
39265;BME280;42646;51.910;7.724;2023-05-09T07:34:26;100855.94;;;16.92;100.00
39265;BME280;42646;51.910;7.724;2023-05-09T07:36:55;100840.47;;;16.94;100.00
39265;BME280;42646;51.910;7.724;2023-05-09T07:39:24;100842.13;;;16.95;100.00
39265;BME280;42646;51.910;7.724;2023-05-09T07:41:51;100844.66;;;16.97;100.00
39265;BME280;42646;51.910;7.724;2023-05-09T07:44:20;100841.63;;;17.00;100.00
39265;BME280;42646;51.910;7.724;2023-05-09T07:46:48;100839.59;;;17.02;100.00
39265;BME280;42646;51.910;7.724;2023-05-09T07:49:16;100844.81;;;17.03;100.00
39265;BME280;42646;51.910;7.724;2023-05-09T07:51:44;100837.56;;;17.04;100.00
39265;BME280;42646;51.910;7.724;2023-05-09T07:54:12;100838.59;;;17.03;100.00
39265;BME280;42646;51.910;7.724;2023-05-09T07:56:40;100834.38;;;17.00;100.00
39265;BME280;42646;51.910;7.724;2023-05-09T07:59:08;100822.97;;;16.98;100.00
39265;BME280;42646;51.910;7.724;2023-05-09T08:01:42;100822.34;;;16.96;100.00
39265;BME280;42646;51.910;7.724;2023-05-09T08:04:11;100821.13;;;16.99;100.00
39265;BME280;42646;51.910;7.724;2023-05-09T08:06:39;100821.31;;;16.97;100.00
39265;BME280;42646;51.910;7.724;2023-05-09T08:09:10;100809.72;;;16.97;100.00
39265;BME280;42646;51.910;7.724;2023-05-09T08:11:40;100816.41;;;17.01;100.00
39265;BME280;42646;51.910;7.724;2023-05-09T08:14:08;100812.34;;;17.05;100.00
39265;BME280;42646;51.910;7.724;2023-05-09T08:16:36;100805.09;;;17.14;100.00
39265;BME280;42646;51.910;7.724;2023-05-09T08:19:05;100808.56;;;17.22;100.00
39265;BME280;42646;51.910;7.724;2023-05-09T08:21:33;100803.13;;;17.30;100.00
39265;BME280;42646;51.910;7.724;2023-05-09T08:24:01;100796.75;;;17.31;100.00
39265;BME280;42646;51.910;7.724;2023-05-09T08:26:28;100785.81;;;17.33;100.00
39265;BME280;42646;51.910;7.724;2023-05-09T08:28:57;100787.41;;;17.42;100.00
39265;BME280;42646;51.910;7.724;2023-05-09T08:31:25;100782.28;;;17.55;100.00
39265;BME280;42646;51.910;7.724;2023-05-09T08:33:53;100773.28;;;17.63;100.00
39265;BME280;42646;51.910;7.724;2023-05-09T08:36:22;100776.41;;;17.75;100.00
39265;BME280;42646;51.910;7.724;2023-05-09T08:38:50;100772.06;;;17.88;100.00
39265;BME280;42646;51.910;7.724;2023-05-09T08:41:24;100765.59;;;17.98;100.00
39265;BME280;42646;51.910;7.724;2023-05-09T08:43:55;100758.75;;;18.10;100.00
39265;BME280;42646;51.910;7.724;2023-05-09T08:46:26;100757.25;;;18.22;100.00
39265;BME280;42646;51.910;7.724;2023-05-09T08:48:55;100751.41;;;18.33;100.00
39265;BME280;42646;51.910;7.724;2023-05-09T08:51:26;100753.16;;;18.41;99.95
39265;BME280;42646;51.910;7.724;2023-05-09T08:53:57;100748.59;;;18.56;99.24
39265;BME280;42646;51.910;7.724;2023-05-09T08:56:25;100753.31;;;18.54;98.55
39265;BME280;42646;51.910;7.724;2023-05-09T08:58:54;100747.19;;;18.60;98.58
39265;BME280;42646;51.910;7.724;2023-05-09T09:01:23;100747.13;;;18.68;97.42
39265;BME280;42646;51.910;7.724;2023-05-09T09:03:52;100747.13;;;18.68;97.30
39265;BME280;42646;51.910;7.724;2023-05-09T09:06:22;100748.28;;;18.66;97.78
39265;BME280;42646;51.910;7.724;2023-05-09T09:08:54;100740.22;;;18.66;97.33
39265;BME280;42646;51.910;7.724;2023-05-09T09:11:23;100750.34;;;18.64;97.05
39265;BME280;42646;51.910;7.724;2023-05-09T09:13:52;100742.63;;;18.61;97.23
39265;BME280;42646;51.910;7.724;2023-05-09T09:16:21;100742.19;;;18.57;97.11
39265;BME280;42646;51.910;7.724;2023-05-09T09:18:51;100736.81;;;18.57;98.05
39265;BME280;42646;51.910;7.724;2023-05-09T09:21:19;100732.25;;;18.58;98.43
39265;BME280;42646;51.910;7.724;2023-05-09T09:23:48;100728.31;;;18.60;98.76
39265;BME280;42646;51.910;7.724;2023-05-09T09:26:18;100724.88;;;18.66;98.41
39265;BME280;42646;51.910;7.724;2023-05-09T09:28:46;100724.44;;;18.63;98.12
39265;BME280;42646;51.910;7.724;2023-05-09T09:31:20;100722.16;;;18.66;98.39
39265;BME280;42646;51.910;7.724;2023-05-09T09:33:49;100716.97;;;18.65;98.06
39265;BME280;42646;51.910;7.724;2023-05-09T09:36:25;100715.94;;;18.66;98.30
39265;BME280;42646;51.910;7.724;2023-05-09T09:38:59;100710.56;;;18.66;98.51
39265;BME280;42646;51.910;7.724;2023-05-09T09:41:32;100716.44;;;18.70;98.98
39265;BME280;42646;51.910;7.724;2023-05-09T09:44:05;100705.94;;;18.75;98.64
39265;BME280;42646;51.910;7.724;2023-05-09T09:46:42;100702.47;;;18.81;98.65
39265;BME280;42646;51.910;7.724;2023-05-09T09:49:10;100703.31;;;18.81;96.96
39265;BME280;42646;51.910;7.724;2023-05-09T09:51:39;100696.25;;;18.80;96.83
39265;BME280;42646;51.910;7.724;2023-05-09T09:54:10;100702.47;;;18.81;96.72
39265;BME280;42646;51.910;7.724;2023-05-09T09:56:41;100689.84;;;18.81;96.91
39265;BME280;42646;51.910;7.724;2023-05-09T09:59:11;100683.28;;;18.90;96.75
39265;BME280;42646;51.910;7.724;2023-05-09T10:01:56;100684.97;;;18.91;96.09
39265;BME280;42646;51.910;7.724;2023-05-09T10:04:28;100667.63;;;19.01;95.15
39265;BME280;42646;51.910;7.724;2023-05-09T10:06:57;100672.44;;;19.05;95.74
39265;BME280;42646;51.910;7.724;2023-05-09T10:09:26;100674.56;;;19.10;95.05
39265;BME280;42646;51.910;7.724;2023-05-09T10:11:56;100663.38;;;19.13;94.23
39265;BME280;42646;51.910;7.724;2023-05-09T10:14:33;100666.69;;;19.15;95.44
39265;BME280;42646;51.910;7.724;2023-05-09T10:17:03;100672.34;;;19.20;95.67
39265;BME280;42646;51.910;7.724;2023-05-09T10:19:32;100661.81;;;19.25;95.06
39265;BME280;42646;51.910;7.724;2023-05-09T10:22:02;100664.97;;;19.29;94.59
39265;BME280;42646;51.910;7.724;2023-05-09T10:24:34;100667.72;;;19.35;95.18
39265;BME280;42646;51.910;7.724;2023-05-09T10:27:07;100662.16;;;19.43;95.34
39265;BME280;42646;51.910;7.724;2023-05-09T10:29:40;100650.41;;;19.51;95.38
39265;BME280;42646;51.910;7.724;2023-05-09T10:32:14;100644.69;;;19.61;94.15
39265;BME280;42646;51.910;7.724;2023-05-09T10:34:46;100638.47;;;19.60;93.57
39265;BME280;42646;51.910;7.724;2023-05-09T10:37:16;100644.09;;;19.65;91.96
39265;BME280;42646;51.910;7.724;2023-05-09T10:39:50;100637.41;;;19.61;91.44
39265;BME280;42646;51.910;7.724;2023-05-09T10:42:22;100637.88;;;19.65;91.92
39265;BME280;42646;51.910;7.724;2023-05-09T10:44:53;100631.69;;;19.71;91.43
39265;BME280;42646;51.910;7.724;2023-05-09T10:47:21;100629.84;;;19.78;90.57
39265;BME280;42646;51.910;7.724;2023-05-09T10:49:49;100627.34;;;19.77;90.04
39265;BME280;42646;51.910;7.724;2023-05-09T10:52:17;100621.34;;;19.81;89.97
39265;BME280;42646;51.910;7.724;2023-05-09T10:54:57;100613.69;;;19.85;91.53
39265;BME280;42646;51.910;7.724;2023-05-09T10:57:31;100606.25;;;19.93;91.91
39265;BME280;42646;51.910;7.724;2023-05-09T11:00:02;100601.94;;;20.06;89.69
39265;BME280;42646;51.910;7.724;2023-05-09T11:02:32;100595.06;;;20.03;89.68
39265;BME280;42646;51.910;7.724;2023-05-09T11:05:12;100588.69;;;20.11;90.87
39265;BME280;42646;51.910;7.724;2023-05-09T11:07:40;100592.84;;;20.20;90.18
39265;BME280;42646;51.910;7.724;2023-05-09T11:10:13;100596.84;;;20.31;90.49
39265;BME280;42646;51.910;7.724;2023-05-09T11:12:55;100585.59;;;20.34;86.01
39265;BME280;42646;51.910;7.724;2023-05-09T11:15:24;100584.59;;;20.35;86.75
39265;BME280;42646;51.910;7.724;2023-05-09T11:18:05;100578.56;;;20.39;86.59
39265;BME280;42646;51.910;7.724;2023-05-09T11:20:58;100569.22;;;20.42;85.00
39265;BME280;42646;51.910;7.724;2023-05-09T11:23:28;100571.31;;;20.40;85.01
39265;BME280;42646;51.910;7.724;2023-05-09T11:26:04;100570.66;;;20.44;84.56
39265;BME280;42646;51.910;7.724;2023-05-09T11:28:35;100563.25;;;20.46;82.39
39265;BME280;42646;51.910;7.724;2023-05-09T11:31:08;100557.16;;;20.44;81.97
39265;BME280;42646;51.910;7.724;2023-05-09T11:33:37;100563.03;;;20.48;82.40
39265;BME280;42646;51.910;7.724;2023-05-09T11:36:19;100550.34;;;20.62;82.04
39265;BME280;42646;51.910;7.724;2023-05-09T11:38:59;100547.88;;;20.60;81.54
39265;BME280;42646;51.910;7.724;2023-05-09T11:41:29;100546.81;;;20.68;82.24
39265;BME280;42646;51.910;7.724;2023-05-09T11:44:11;100540.59;;;20.74;80.04
39265;BME280;42646;51.910;7.724;2023-05-09T11:46:39;100532.91;;;20.64;80.94
39265;BME280;42646;51.910;7.724;2023-05-09T11:49:06;100531.22;;;20.63;81.30
39265;BME280;42646;51.910;7.724;2023-05-09T11:51:37;100529.78;;;20.67;81.03
39265;BME280;42646;51.910;7.724;2023-05-09T11:54:07;100531.66;;;20.67;80.99
39265;BME280;42646;51.910;7.724;2023-05-09T11:56:38;100527.50;;;20.71;81.99
39265;BME280;42646;51.910;7.724;2023-05-09T11:59:10;100515.41;;;20.80;81.24
39265;BME280;42646;51.910;7.724;2023-05-09T12:01:40;100508.34;;;20.86;79.85
39265;BME280;42646;51.910;7.724;2023-05-09T12:04:07;100504.59;;;20.87;80.27
39265;BME280;42646;51.910;7.724;2023-05-09T12:06:35;100506.66;;;20.98;81.48
39265;BME280;42646;51.910;7.724;2023-05-09T12:09:08;100500.22;;;21.05;81.38
39265;BME280;42646;51.910;7.724;2023-05-09T12:11:36;100495.38;;;21.21;80.13
39265;BME280;42646;51.910;7.724;2023-05-09T12:14:03;100484.38;;;21.16;79.33
39265;BME280;42646;51.910;7.724;2023-05-09T12:16:32;100480.19;;;21.20;80.43
39265;BME280;42646;51.910;7.724;2023-05-09T12:19:00;100477.94;;;21.30;79.48
39265;BME280;42646;51.910;7.724;2023-05-09T12:21:28;100469.16;;;21.34;78.49
39265;BME280;42646;51.910;7.724;2023-05-09T12:23:56;100464.78;;;21.33;77.38
39265;BME280;42646;51.910;7.724;2023-05-09T12:26:24;100466.25;;;21.36;77.43
39265;BME280;42646;51.910;7.724;2023-05-09T12:28:52;100472.28;;;21.38;76.13
39265;BME280;42646;51.910;7.724;2023-05-09T12:31:21;100468.53;;;21.32;75.47
39265;BME280;42646;51.910;7.724;2023-05-09T12:33:50;100467.09;;;21.30;76.01
39265;BME280;42646;51.910;7.724;2023-05-09T12:36:20;100460.66;;;21.31;75.43
39265;BME280;42646;51.910;7.724;2023-05-09T12:38:53;100459.59;;;21.32;75.65
39265;BME280;42646;51.910;7.724;2023-05-09T12:41:21;100459.00;;;21.30;76.10
39265;BME280;42646;51.910;7.724;2023-05-09T12:43:53;100458.31;;;21.34;74.90
39265;BME280;42646;51.910;7.724;2023-05-09T12:46:21;100453.13;;;21.33;73.73
39265;BME280;42646;51.910;7.724;2023-05-09T12:48:50;100456.47;;;21.35;72.39
39265;BME280;42646;51.910;7.724;2023-05-09T12:51:18;100441.69;;;21.24;72.88
39265;BME280;42646;51.910;7.724;2023-05-09T12:53:49;100437.13;;;21.31;74.39
39265;BME280;42646;51.910;7.724;2023-05-09T12:56:19;100439.78;;;21.38;74.08
39265;BME280;42646;51.910;7.724;2023-05-09T12:58:50;100434.16;;;21.40;73.51
39265;BME280;42646;51.910;7.724;2023-05-09T13:01:18;100437.28;;;21.43;73.81